Time;durP1;ratioP1;P1;durP2;ratioP2;P2;SDS_P1;SDS_P2;PMS_P1;PMS_P2;Temp;Humidity;BMP_temperature;BMP_pressure;BME280_temperature;BME280_humidity;BME280_pressure;Samples;Min_cycle;Max_cycle;Signal;HPM_P1;HPM_P2
2022/10/25 00:01:34;;;;;;;2.17;1.00;;;16.70;90.20;;;;;;4894922;29;20558;-76
2022/10/25 00:04:00;;;;;;;3.15;0.95;;;16.70;90.20;;;;;;4908620;29;20029;-76
2022/10/25 00:06:26;;;;;;;2.28;0.70;;;16.70;90.10;;;;;;4893725;29;20033;-75
2022/10/25 00:08:51;;;;;;;2.70;0.90;;;16.80;90.10;;;;;;4892254;29;20546;-76
2022/10/25 00:11:23;;;;;;;2.00;0.80;;;16.80;90.10;;;;;;4893227;29;20084;-76
2022/10/25 00:13:50;;;;;;;2.85;0.90;;;16.80;90.10;;;;;;4893888;29;20060;-75
2022/10/25 00:16:20;;;;;;;1.65;0.73;;;16.80;90.10;;;;;;4889705;29;20056;-75
2022/10/25 00:18:45;;;;;;;1.90;0.90;;;16.80;90.10;;;;;;4875603;29;20076;-75
2022/10/25 00:21:11;;;;;;;2.03;0.90;;;16.80;90.20;;;;;;4891959;29;20033;-74
2022/10/25 00:23:36;;;;;;;2.53;0.95;;;16.70;90.20;;;;;;4893494;29;20032;-75
2022/10/25 00:26:07;;;;;;;1.83;0.90;;;16.80;90.20;;;;;;4875673;29;20036;-75
2022/10/25 00:28:33;;;;;;;1.38;0.70;;;16.70;90.30;;;;;;4893730;29;20039;-76
2022/10/25 00:31:01;;;;;;;1.92;0.88;;;16.70;90.30;;;;;;4891870;29;20062;-75
2022/10/25 00:33:31;;;;;;;2.38;0.80;;;16.70;90.30;;;;;;4893415;29;20029;-76
2022/10/25 00:36:13;;;;;;;2.00;0.90;;;16.70;90.30;;;;;;4876527;29;20029;-75
2022/10/25 00:38:39;;;;;;;1.85;0.88;;;16.70;90.30;;;;;;4906502;29;20032;-75
2022/10/25 00:41:05;;;;;;;2.13;1.00;;;16.70;90.30;;;;;;4892344;29;20025;-77
2022/10/25 00:43:38;;;;;;;3.63;1.00;;;16.70;90.30;;;;;;4884841;29;20047;-75
2022/10/25 00:46:27;;;;;;;2.33;0.85;;;16.70;90.40;;;;;;4891439;29;20466;-76
2022/10/25 00:48:55;;;;;;;2.55;1.05;;;16.70;90.40;;;;;;4907771;29;20522;-76
2022/10/25 00:51:24;;;;;;;1.92;0.90;;;16.70;90.40;;;;;;4875752;29;20463;-75
2022/10/25 00:53:50;;;;;;;2.28;0.95;;;16.70;90.40;;;;;;4893155;29;20441;-75
2022/10/25 00:56:20;;;;;;;2.25;1.00;;;16.70;90.40;;;;;;4892753;29;20035;-75
2022/10/25 00:58:50;;;;;;;2.83;0.90;;;16.70;90.60;;;;;;4891813;29;20036;-75
2022/10/25 01:01:16;;;;;;;1.63;0.80;;;16.70;90.40;;;;;;4892610;29;20033;-75
2022/10/25 01:03:44;;;;;;;1.90;1.00;;;16.70;90.30;;;;;;4892788;29;20099;-76
2022/10/25 01:06:24;;;;;;;1.75;0.70;;;16.70;90.30;;;;;;4891564;29;20056;-76
2022/10/25 01:08:51;;;;;;;1.55;0.80;;;16.70;90.20;;;;;;4892720;29;20091;-76
2022/10/25 01:11:18;;;;;;;1.70;0.90;;;16.70;90.10;;;;;;4892273;29;20033;-76
2022/10/25 01:13:44;;;;;;;2.20;0.85;;;16.80;90.20;;;;;;4892374;29;20032;-76
2022/10/25 01:16:37;;;;;;;3.63;0.95;;;16.80;90.10;;;;;;4892568;29;20103;-75
2022/10/25 01:19:21;;;;;;;2.30;0.95;;;16.80;90.10;;;;;;4892372;29;20091;-76
2022/10/25 01:21:57;;;;;;;2.65;0.82;;;16.80;90.20;;;;;;4891979;29;20036;-76
2022/10/25 01:24:31;;;;;;;1.75;0.90;;;16.70;90.20;;;;;;4891142;29;20067;-75
2022/10/25 01:27:15;;;;;;;2.17;0.85;;;16.70;90.20;;;;;;4875692;29;20025;-76
2022/10/25 01:30:06;;;;;;;1.90;0.90;;;16.70;90.20;;;;;;4892570;29;20096;-76
2022/10/25 01:33:03;;;;;;;2.22;0.95;;;16.70;90.30;;;;;;4891389;29;20116;-76
2022/10/25 01:35:53;;;;;;;1.90;0.90;;;16.70;90.30;;;;;;4872131;29;20033;-76
2022/10/25 01:38:43;;;;;;;1.95;1.00;;;16.70;90.30;;;;;;4878129;29;20474;-75
2022/10/25 01:41:41;;;;;;;2.40;0.90;;;16.70;90.30;;;;;;4890613;29;20032;-75
2022/10/25 01:44:22;;;;;;;2.03;0.95;;;16.70;90.40;;;;;;4890892;29;20051;-75
2022/10/25 01:47:20;;;;;;;2.47;0.90;;;16.70;90.40;;;;;;4890436;29;20084;-76
2022/10/25 01:49:57;;;;;;;1.83;0.90;;;16.70;90.40;;;;;;4866497;29;20415;-77
2022/10/25 01:52:23;;;;;;;1.88;0.90;;;16.70;90.40;;;;;;4856656;29;20040;-75
2022/10/25 01:54:50;;;;;;;1.40;0.90;;;16.70;90.40;;;;;;4873204;29;20484;-76
2022/10/25 01:57:36;;;;;;;2.75;1.00;;;16.70;90.40;;;;;;4881727;29;20032;-75
2022/10/25 02:00:12;;;;;;;1.95;0.90;;;16.70;90.40;;;;;;4874491;29;20036;-75
2022/10/25 02:02:56;;;;;;;2.00;0.80;;;16.70;90.60;;;;;;4891795;29;20472;-75
2022/10/25 02:05:36;;;;;;;2.00;1.10;;;16.70;90.40;;;;;;4891779;29;20036;-76
2022/10/25 02:08:15;;;;;;;1.67;0.90;;;16.70;90.40;;;;;;4891733;29;20566;-76
2022/10/25 02:10:52;;;;;;;1.85;0.90;;;16.70;90.30;;;;;;4874547;29;20491;-75
2022/10/25 02:13:27;;;;;;;3.70;1.30;;;16.70;90.20;;;;;;4891469;29;20059;-75
2022/10/25 02:16:08;;;;;;;1.67;0.90;;;16.80;90.20;;;;;;4890283;29;20149;-75
2022/10/25 02:18:41;;;;;;;2.80;0.90;;;16.70;90.20;;;;;;4890108;29;20036;-76
2022/10/25 02:21:09;;;;;;;2.10;0.80;;;16.80;90.20;;;;;;4890644;29;20036;-75
2022/10/25 02:23:36;;;;;;;2.00;1.00;;;16.70;90.10;;;;;;4891344;29;20091;-75
2022/10/25 02:26:06;;;;;;;2.17;1.00;;;16.70;90.20;;;;;;4889897;29;20523;-76
2022/10/25 02:28:35;;;;;;;3.05;1.08;;;16.70;90.20;;;;;;4890855;29;20104;-76
2022/10/25 02:31:01;;;;;;;3.20;1.10;;;16.70;90.20;;;;;;4872189;29;20041;-75
2022/10/25 02:33:26;;;;;;;2.45;0.90;;;16.70;90.30;;;;;;4872669;29;20107;-75
2022/10/25 02:36:13;;;;;;;2.45;0.90;;;16.70;90.30;;;;;;4872504;29;20136;-74
2022/10/25 02:38:40;;;;;;;2.10;0.93;;;16.70;90.30;;;;;;4871327;29;20043;-77
2022/10/25 02:41:06;;;;;;;1.15;0.80;;;16.70;90.30;;;;;;4870694;29;20048;-75
2022/10/25 02:43:32;;;;;;;2.38;0.98;;;16.70;90.40;;;;;;4882288;29;20028;-75
2022/10/25 02:45:58;;;;;;;1.92;1.00;;;16.70;90.40;;;;;;4889718;29;20079;-76
2022/10/25 02:48:24;;;;;;;1.35;0.82;;;16.70;90.40;;;;;;4886577;29;20088;-75
2022/10/25 02:50:50;;;;;;;2.47;1.00;;;16.70;90.40;;;;;;4873152;29;20088;-75
2022/10/25 02:53:15;;;;;;;1.60;0.90;;;16.70;90.40;;;;;;4890927;29;20032;-75
2022/10/25 02:55:41;;;;;;;2.10;1.00;;;16.60;90.40;;;;;;4890635;29;20075;-75
2022/10/25 02:58:07;;;;;;;2.90;1.20;;;16.70;90.40;;;;;;4890960;29;20108;-76
2022/10/25 03:00:32;;;;;;;2.33;0.90;;;16.70;90.40;;;;;;4890390;29;20130;-75
2022/10/25 03:02:58;;;;;;;2.22;1.08;;;16.60;90.40;;;;;;4889083;29;20042;-77
2022/10/25 03:05:23;;;;;;;2.75;1.35;;;16.60;90.40;;;;;;4889237;29;20645;-76
2022/10/25 03:07:49;;;;;;;3.65;1.30;;;16.60;90.40;;;;;;4890627;29;20088;-76
2022/10/25 03:10:14;;;;;;;2.30;0.90;;;16.60;90.60;;;;;;4888941;29;20032;-76
2022/10/25 03:12:40;;;;;;;2.28;1.00;;;16.70;90.70;;;;;;4890297;29;20055;-75
2022/10/25 03:15:06;;;;;;;1.67;0.82;;;16.70;90.40;;;;;;4890515;29;20051;-76
2022/10/25 03:17:31;;;;;;;2.78;1.05;;;16.70;90.30;;;;;;4889198;29;20123;-76
2022/10/25 03:19:57;;;;;;;1.92;0.90;;;16.70;90.20;;;;;;4890416;29;20136;-76
2022/10/25 03:22:22;;;;;;;1.42;0.80;;;16.70;90.20;;;;;;4889954;29;20055;-75
2022/10/25 03:24:48;;;;;;;1.55;0.80;;;16.70;90.20;;;;;;4890444;29;20032;-75
2022/10/25 03:27:14;;;;;;;2.92;1.05;;;16.70;90.20;;;;;;4889929;29;20037;-75
2022/10/25 03:29:39;;;;;;;2.55;1.23;;;16.70;90.20;;;;;;4889483;29;20029;-76
2022/10/25 03:32:06;;;;;;;2.58;1.08;;;16.60;90.20;;;;;;4889743;29;20115;-76
2022/10/25 03:34:32;;;;;;;2.25;1.10;;;16.70;90.30;;;;;;4888169;29;20036;-76
2022/10/25 03:36:57;;;;;;;2.05;0.90;;;16.70;90.30;;;;;;4888745;29;20037;-75
2022/10/25 03:39:23;;;;;;;2.50;1.02;;;16.80;90.30;;;;;;4890281;29;20386;-75
2022/10/25 03:41:49;;;;;;;1.52;0.93;;;16.70;90.30;;;;;;4889245;29;20029;-75
2022/10/25 03:44:15;;;;;;;2.15;0.90;;;16.60;90.30;;;;;;4904263;29;20558;-77
2022/10/25 03:46:41;;;;;;;2.95;1.00;;;16.70;90.40;;;;;;4889683;29;20040;-76
2022/10/25 03:49:07;;;;;;;2.95;1.10;;;16.70;90.40;;;;;;4889889;29;20036;-77
2022/10/25 03:51:32;;;;;;;2.55;1.00;;;16.70;90.40;;;;;;4888901;29;20100;-76
2022/10/25 03:53:58;;;;;;;2.97;1.10;;;16.60;90.40;;;;;;4890039;29;20032;-76
2022/10/25 03:56:23;;;;;;;2.63;1.20;;;16.70;90.40;;;;;;4903964;29;20586;-75
2022/10/25 03:58:49;;;;;;;2.92;1.00;;;16.60;90.40;;;;;;4890140;29;20025;-75
2022/10/25 04:01:15;;;;;;;3.00;1.20;;;16.70;90.40;;;;;;4888920;29;20497;-75
2022/10/25 04:03:42;;;;;;;1.35;0.80;;;16.60;90.40;;;;;;4904155;29;20033;-75
2022/10/25 04:06:08;;;;;;;3.08;1.15;;;16.60;90.50;;;;;;4904811;29;20025;-76
2022/10/25 04:08:33;;;;;;;1.50;0.93;;;16.60;90.50;;;;;;4890203;29;20414;-75
2022/10/25 04:10:59;;;;;;;2.75;1.17;;;16.60;90.50;;;;;;4904041;29;20428;-75
2022/10/25 04:13:24;;;;;;;2.28;1.10;;;16.60;90.50;;;;;;4890212;29;20037;-76
2022/10/25 04:15:50;;;;;;;2.38;0.90;;;16.60;90.50;;;;;;4892748;29;20043;-76
2022/10/25 04:18:15;;;;;;;1.40;0.93;;;16.60;90.40;;;;;;4907573;29;20515;-75
2022/10/25 04:20:41;;;;;;;2.67;1.02;;;16.70;90.40;;;;;;4892784;29;20037;-75
2022/10/25 04:23:07;;;;;;;2.10;1.00;;;16.70;90.30;;;;;;4893095;29;20028;-77
2022/10/25 04:25:32;;;;;;;2.67;1.10;;;16.70;90.30;;;;;;4884672;29;20037;-75
2022/10/25 04:27:59;;;;;;;3.70;1.10;;;16.70;90.20;;;;;;4891587;29;20033;-75
2022/10/25 04:30:24;;;;;;;1.83;0.90;;;16.70;90.20;;;;;;4888060;29;20131;-76
2022/10/25 04:32:50;;;;;;;2.47;1.10;;;16.70;90.20;;;;;;4891781;29;20079;-77
2022/10/25 04:35:16;;;;;;;2.42;1.10;;;16.70;90.20;;;;;;4892762;29;20036;-76
2022/10/25 04:37:41;;;;;;;3.10;1.30;;;16.70;90.30;;;;;;4892366;29;20042;-75
2022/10/25 04:40:07;;;;;;;2.67;1.00;;;16.70;90.30;;;;;;4892759;29;20048;-75
2022/10/25 04:42:34;;;;;;;3.45;1.23;;;16.70;90.30;;;;;;4889773;29;20037;-75
2022/10/25 04:45:00;;;;;;;1.75;1.00;;;16.70;90.30;;;;;;4891565;29;20434;-75
2022/10/25 04:47:30;;;;;;;2.42;1.05;;;16.70;90.30;;;;;;4872400;29;20040;-75
2022/10/25 04:49:55;;;;;;;3.30;1.10;;;16.70;90.40;;;;;;4893308;29;20440;-76
2022/10/25 04:52:21;;;;;;;3.10;1.10;;;16.70;90.40;;;;;;4892014;29;20029;-74
2022/10/25 04:54:47;;;;;;;3.67;1.00;;;16.60;90.40;;;;;;4890824;29;20044;-76
2022/10/25 04:57:13;;;;;;;2.10;0.90;;;16.60;90.40;;;;;;4874794;29;20123;-76
2022/10/25 04:59:38;;;;;;;5.20;1.33;;;16.60;90.70;;;;;;4890976;29;20041;-76
2022/10/25 05:02:04;;;;;;;3.15;1.42;;;16.60;90.40;;;;;;4905344;29;20040;-76
2022/10/25 05:04:30;;;;;;;1.60;1.00;;;16.60;90.50;;;;;;4892910;29;20384;-75
2022/10/25 05:06:55;;;;;;;2.67;1.02;;;16.60;90.50;;;;;;4892206;29;20096;-79
2022/10/25 05:09:21;;;;;;;3.47;1.17;;;16.70;90.50;;;;;;4889783;29;20050;-78
2022/10/25 05:11:46;;;;;;;2.33;1.10;;;16.70;90.50;;;;;;4875658;29;20407;-78
2022/10/25 05:14:13;;;;;;;2.75;1.10;;;16.60;90.50;;;;;;4895562;29;20031;-79
2022/10/25 05:16:39;;;;;;;2.47;1.00;;;16.60;90.50;;;;;;4892655;29;20032;-79
2022/10/25 05:19:04;;;;;;;2.88;1.10;;;16.60;90.50;;;;;;4893445;29;20033;-78
2022/10/25 05:21:30;;;;;;;2.40;0.93;;;16.60;90.50;;;;;;4894210;29;20032;-78
2022/10/25 05:23:56;;;;;;;4.07;1.10;;;16.60;90.40;;;;;;4908354;29;20503;-80
2022/10/25 05:26:22;;;;;;;2.05;1.00;;;16.60;90.40;;;;;;4892563;29;20439;-76
2022/10/25 05:28:49;;;;;;;1.63;1.00;;;16.70;90.30;;;;;;4893855;29;20070;-78
2022/10/25 05:31:17;;;;;;;2.25;1.10;;;16.70;90.30;;;;;;4889691;29;20036;-78
2022/10/25 05:33:46;;;;;;;2.53;1.00;;;16.70;90.20;;;;;;4896225;29;20120;-82
2022/10/25 05:36:13;;;;;;;2.70;1.10;;;16.70;90.20;;;;;;4892842;29;20048;-77
2022/10/25 05:38:38;;;;;;;2.65;0.93;;;16.70;90.20;;;;;;4906810;29;20736;-77
2022/10/25 05:41:05;;;;;;;3.15;0.90;;;16.60;90.20;;;;;;4889677;29;20028;-76
2022/10/25 05:43:30;;;;;;;4.15;1.45;;;16.70;90.30;;;;;;4890621;29;20032;-76
2022/10/25 05:46:13;;;;;;;3.47;1.27;;;16.70;90.30;;;;;;4892503;29;20029;-77
2022/10/25 05:48:39;;;;;;;2.30;1.10;;;16.70;90.30;;;;;;4890764;29;20043;-76
2022/10/25 05:51:11;;;;;;;3.15;1.25;;;16.70;90.40;;;;;;4892128;29;20021;-76
2022/10/25 05:53:40;;;;;;;2.78;1.17;;;16.60;90.40;;;;;;4891322;29;20033;-77
2022/10/25 05:56:05;;;;;;;2.60;1.02;;;16.60;90.40;;;;;;4892259;29;20056;-76
2022/10/25 05:58:31;;;;;;;3.15;1.20;;;16.60;90.40;;;;;;4887020;29;20123;-75
2022/10/25 06:00:59;;;;;;;2.78;1.20;;;16.60;90.40;;;;;;4874573;29;20029;-76
2022/10/25 06:03:25;;;;;;;3.28;1.20;;;16.70;90.50;;;;;;4890464;29;20035;-76
2022/10/25 06:05:50;;;;;;;2.38;1.00;;;16.70;90.50;;;;;;4890170;29;20033;-76
2022/10/25 06:08:16;;;;;;;2.47;1.10;;;16.60;90.40;;;;;;4891014;29;20041;-77
2022/10/25 06:10:42;;;;;;;3.10;1.20;;;16.50;90.40;;;;;;4891734;29;20165;-77
2022/10/25 06:13:07;;;;;;;3.00;1.08;;;16.60;90.50;;;;;;4890297;29;20127;-76
2022/10/25 06:15:37;;;;;;;2.75;1.10;;;16.60;90.50;;;;;;4891480;29;20124;-75
2022/10/25 06:18:03;;;;;;;4.28;1.35;;;16.60;90.50;;;;;;4889553;29;20495;-76
2022/10/25 06:20:29;;;;;;;3.38;1.30;;;16.60;90.50;;;;;;4890232;29;20040;-77
2022/10/25 06:22:55;;;;;;;3.03;0.95;;;16.60;90.50;;;;;;4891588;29;20040;-77
2022/10/25 06:25:21;;;;;;;2.47;1.00;;;16.60;90.50;;;;;;4872128;29;20029;-76
2022/10/25 06:27:46;;;;;;;3.28;1.30;;;16.60;90.50;;;;;;4874203;29;20156;-77
2022/10/25 06:30:12;;;;;;;2.88;1.20;;;16.60;90.40;;;;;;4889950;29;20169;-78
2022/10/25 06:32:37;;;;;;;2.92;1.10;;;16.60;90.40;;;;;;4892845;29;20025;-76
2022/10/25 06:35:04;;;;;;;3.50;1.10;;;16.60;90.30;;;;;;4891657;29;20172;-78
2022/10/25 06:37:29;;;;;;;2.63;1.10;;;16.70;90.20;;;;;;4892031;29;20044;-81
2022/10/25 06:39:55;;;;;;;4.50;1.20;;;16.70;90.20;;;;;;4891415;29;20041;-76
2022/10/25 06:42:20;;;;;;;3.10;1.00;;;16.70;90.20;;;;;;4888225;29;20024;-76
2022/10/25 06:44:46;;;;;;;2.65;1.00;;;16.70;90.20;;;;;;4877187;29;20426;-74
2022/10/25 06:47:12;;;;;;;2.50;1.23;;;16.70;90.20;;;;;;4873661;29;20039;-75
2022/10/25 06:49:38;;;;;;;2.88;1.20;;;16.70;90.30;;;;;;4892698;29;20031;-77
2022/10/25 06:52:04;;;;;;;2.42;1.30;;;16.70;90.30;;;;;;4908559;29;20155;-77
2022/10/25 06:54:30;;;;;;;3.83;1.20;;;16.70;90.30;;;;;;4908098;29;20082;-77
2022/10/25 06:56:56;;;;;;;3.25;1.35;;;16.60;90.30;;;;;;4908697;29;20119;-77
2022/10/25 06:59:22;;;;;;;3.40;1.13;;;16.70;90.40;;;;;;4909456;29;20031;-77
2022/10/25 07:01:48;;;;;;;3.25;1.17;;;16.70;90.40;;;;;;4891500;29;20029;-78
2022/10/25 07:04:14;;;;;;;3.75;1.20;;;16.70;90.40;;;;;;4892295;29;20021;-77
2022/10/25 07:06:40;;;;;;;2.70;1.20;;;16.60;90.40;;;;;;4890379;29;20040;-78
2022/10/25 07:09:08;;;;;;;4.18;1.50;;;16.60;90.40;;;;;;4889936;29;20119;-77
2022/10/25 07:11:35;;;;;;;2.72;1.30;;;16.60;90.40;;;;;;4888759;29;20402;-76
2022/10/25 07:14:03;;;;;;;4.00;1.33;;;16.60;90.70;;;;;;4891685;29;20104;-78
2022/10/25 07:16:29;;;;;;;3.70;1.40;;;16.60;90.50;;;;;;4889704;29;20028;-77
2022/10/25 07:19:02;;;;;;;3.20;1.17;;;16.60;90.50;;;;;;4889468;29;20072;-77
2022/10/25 07:21:30;;;;;;;2.65;1.13;;;16.60;90.50;;;;;;4890553;29;20032;-78
2022/10/25 07:23:55;;;;;;;3.50;1.23;;;16.60;90.50;;;;;;4892376;29;20810;-78
2022/10/25 07:26:23;;;;;;;3.13;1.45;;;16.60;90.40;;;;;;4891987;29;20032;-77
2022/10/25 07:28:51;;;;;;;3.35;1.23;;;16.60;90.50;;;;;;4890251;29;20068;-78
2022/10/25 07:31:25;;;;;;;2.47;1.25;;;16.60;90.40;;;;;;4890400;29;20061;-81
2022/10/25 07:33:52;;;;;;;3.25;1.20;;;16.60;90.40;;;;;;4890422;29;20124;-78
2022/10/25 07:36:19;;;;;;;2.65;1.20;;;16.60;90.40;;;;;;4892715;29;20036;-77
2022/10/25 07:38:45;;;;;;;3.15;1.10;;;16.60;90.40;;;;;;4908351;29;20040;-77
2022/10/25 07:41:11;;;;;;;2.97;1.25;;;16.70;90.30;;;;;;4909444;29;20028;-76
2022/10/25 07:43:37;;;;;;;3.00;1.35;;;16.70;90.30;;;;;;4909441;29;20033;-78
2022/10/25 07:46:04;;;;;;;3.72;1.48;;;16.70;90.20;;;;;;4907501;29;20056;-76
2022/10/25 07:48:30;;;;;;;3.22;1.33;;;16.70;90.20;;;;;;4898584;29;20679;-78
2022/10/25 07:50:56;;;;;;;3.03;1.15;;;16.70;90.20;;;;;;4912303;29;20032;-77
2022/10/25 07:53:21;;;;;;;3.53;1.35;;;16.80;90.20;;;;;;4913143;29;20036;-78
2022/10/25 07:55:53;;;;;;;3.20;1.30;;;16.80;90.20;;;;;;4916360;29;20036;-79
2022/10/25 07:58:19;;;;;;;4.00;1.60;;;16.70;90.20;;;;;;4916217;29;20028;-79
2022/10/25 08:00:46;;;;;;;4.18;1.30;;;16.80;90.30;;;;;;4899078;29;20032;-79
2022/10/25 08:03:13;;;;;;;3.58;1.50;;;16.70;90.30;;;;;;4918305;29;20043;-80
2022/10/25 08:05:39;;;;;;;2.97;1.30;;;16.80;90.30;;;;;;4916919;29;20091;-81
2022/10/25 08:08:05;;;;;;;3.85;1.33;;;16.80;90.20;;;;;;4902052;29;20055;-76
2022/10/25 08:10:31;;;;;;;2.58;1.20;;;16.80;90.20;;;;;;4894270;29;20032;-77
2022/10/25 08:12:57;;;;;;;4.07;1.48;;;16.80;90.20;;;;;;4882922;29;20481;-78
2022/10/25 08:15:23;;;;;;;4.22;1.40;;;16.80;90.20;;;;;;4911425;29;20036;-76
2022/10/25 08:17:57;;;;;;;3.13;1.38;;;16.80;90.10;;;;;;4878185;29;20041;-78
2022/10/25 08:20:23;;;;;;;4.15;1.30;;;16.80;90.10;;;;;;4876620;29;20510;-76
2022/10/25 08:22:49;;;;;;;3.30;1.42;;;16.80;90.20;;;;;;4878534;29;20032;-77
2022/10/25 08:25:14;;;;;;;3.35;1.30;;;16.80;90.20;;;;;;4881439;29;20116;-77
2022/10/25 08:27:41;;;;;;;2.72;1.27;;;16.80;90.10;;;;;;4914926;29;20032;-79
2022/10/25 08:30:08;;;;;;;3.90;1.42;;;16.80;90.20;;;;;;4911867;29;20043;-77
2022/10/25 08:32:37;;;;;;;3.65;1.23;;;16.80;90.40;;;;;;4927058;29;20577;-76
2022/10/25 08:35:03;;;;;;;3.70;1.30;;;16.80;90.20;;;;;;4927194;29;20035;-75
2022/10/25 08:37:29;;;;;;;4.10;1.30;;;16.60;90.10;;;;;;4895608;29;20043;-75
2022/10/25 08:39:54;;;;;;;3.53;1.10;;;16.80;90.20;;;;;;4911784;29;20024;-77
2022/10/25 08:42:38;;;;;;;3.33;1.42;;;16.80;90.10;;;;;;4911082;29;20459;-77
2022/10/25 08:45:38;;;;;;;4.47;1.40;;;16.90;90.20;;;;;;4911215;29;20032;-77
2022/10/25 08:48:10;;;;;;;;;;;16.80;90.10;;;;;;4897615;29;20036;-76
2022/10/25 08:50:46;;;;;;;21.48;2.45;;;16.90;90.00;;;;;;4892842;29;19907;-77
2022/10/25 08:53:27;;;;;;;19.08;2.70;;;17.00;90.00;;;;;;4894121;29;20028;-77
2022/10/25 08:55:53;;;;;;;16.38;2.45;;;17.10;89.70;;;;;;4894567;29;20038;-79
2022/10/25 08:58:40;;;;;;;12.73;2.30;;;17.10;89.40;;;;;;4894006;29;20047;-79
2022/10/25 09:01:15;;;;;;;15.52;2.63;;;17.10;89.30;;;;;;4893417;29;20523;-78
2022/10/25 09:03:41;;;;;;;15.10;2.42;;;17.10;89.40;;;;;;4894680;29;20040;-78
2022/10/25 09:06:32;;;;;;;9.93;2.40;;;17.10;89.50;;;;;;4891406;29;20040;-79
2022/10/25 09:09:15;;;;;;;12.13;1.92;;;17.00;89.60;;;;;;4885179;29;20043;-78
2022/10/25 09:12:02;;;;;;;16.85;2.45;;;17.00;89.60;;;;;;4895069;29;20558;-77
2022/10/25 09:14:51;;;;;;;9.95;1.65;;;17.10;89.90;;;;;;4877548;29;20036;-77
2022/10/25 09:17:25;;;;;;;13.73;2.05;;;17.00;89.80;;;;;;4892790;29;20108;-76
2022/10/25 09:20:02;;;;;;;8.00;1.90;;;17.00;89.90;;;;;;4893945;29;20132;-78
2022/10/25 09:22:35;;;;;;;8.40;1.90;;;16.90;89.90;;;;;;4873430;29;20037;-76
2022/10/25 09:25:30;;;;;;;7.45;1.83;;;16.90;90.00;;;;;;4859374;29;20029;-77
2022/10/25 09:28:07;;;;;;;7.75;1.67;;;16.90;90.00;;;;;;4856464;29;20041;-76
2022/10/25 09:30:39;;;;;;;8.25;1.80;;;17.00;90.00;;;;;;4892123;29;20037;-79
2022/10/25 09:33:15;;;;;;;6.80;1.80;;;17.00;90.00;;;;;;4896616;29;20040;-77
2022/10/25 09:35:45;;;;;;;9.70;2.10;;;16.90;90.00;;;;;;4893594;29;20574;-76
2022/10/25 09:38:34;;;;;;;6.90;1.70;;;16.80;90.00;;;;;;4891478;29;20063;-78
2022/10/25 09:41:10;;;;;;;5.57;1.60;;;16.90;90.00;;;;;;4908999;29;20028;-78
2022/10/25 09:43:47;;;;;;;4.30;1.40;;;16.90;90.00;;;;;;4891402;29;20059;-77
2022/10/25 09:46:19;;;;;;;6.65;1.52;;;17.00;90.00;;;;;;4897033;29;20422;-78
2022/10/25 09:48:48;;;;;;;7.68;1.52;;;16.90;90.00;;;;;;4894578;29;20043;-78
2022/10/25 09:51:24;;;;;;;7.85;1.50;;;16.90;90.00;;;;;;4876401;29;20033;-77
2022/10/25 09:53:55;;;;;;;5.47;1.58;;;17.10;90.00;;;;;;4878453;29;20035;-77
2022/10/25 09:56:21;;;;;;;8.18;1.70;;;16.90;89.90;;;;;;4894429;29;20036;-77
2022/10/25 09:58:50;;;;;;;5.88;1.55;;;16.90;89.80;;;;;;4892381;29;20048;-78
2022/10/25 10:01:27;;;;;;;6.25;1.73;;;16.90;89.80;;;;;;4892206;29;20020;-77
2022/10/25 10:04:11;;;;;;;8.60;1.80;;;16.90;89.90;;;;;;4894046;29;20092;-77
2022/10/25 10:06:38;;;;;;;5.00;1.48;;;16.90;89.90;;;;;;4895363;29;20045;-77
2022/10/25 10:09:11;;;;;;;5.32;1.52;;;16.80;90.00;;;;;;4895238;29;20076;-78
2022/10/25 10:11:38;;;;;;;6.18;1.40;;;16.90;90.00;;;;;;4891756;29;20067;-77
2022/10/25 10:14:13;;;;;;;7.95;1.42;;;17.00;90.10;;;;;;4892038;29;20029;-77
2022/10/25 10:16:49;;;;;;;5.75;1.40;;;16.80;90.10;;;;;;4902537;29;20021;-82
2022/10/25 10:19:20;;;;;;;7.82;1.92;;;16.90;90.10;;;;;;4905657;29;20507;-81
2022/10/25 10:21:47;;;;;;;4.65;1.35;;;16.90;90.40;;;;;;4904219;29;20028;-81
2022/10/25 10:24:34;;;;;;;5.13;1.40;;;16.80;90.10;;;;;;4888134;29;20036;-78
2022/10/25 10:27:05;;;;;;;5.03;1.40;;;16.80;90.10;;;;;;4900167;29;20032;-80
2022/10/25 10:29:52;;;;;;;5.05;1.70;;;17.00;90.20;;;;;;4900954;29;20025;-82
2022/10/25 10:32:38;;;;;;;4.32;1.30;;;16.90;90.10;;;;;;4868706;29;20132;-81
2022/10/25 10:35:27;;;;;;;6.47;1.55;;;16.90;90.10;;;;;;4906298;29;20032;-82
2022/10/25 10:38:13;;;;;;;3.67;1.60;;;16.90;90.10;;;;;;4905175;29;20036;-82
2022/10/25 10:40:38;;;;;;;3.70;1.33;;;16.90;90.10;;;;;;4903228;29;20503;-82
2022/10/25 10:43:30;;;;;;;5.85;1.60;;;16.80;90.10;;;;;;4903552;29;20076;-81
2022/10/25 10:46:02;;;;;;;5.55;1.50;;;16.90;90.10;;;;;;4903289;29;20061;-79
2022/10/25 10:48:32;;;;;;;5.15;1.58;;;16.90;90.10;;;;;;4903411;29;20109;-79
2022/10/25 10:50:58;;;;;;;5.33;1.50;;;16.90;90.00;;;;;;4903402;29;20089;-81
2022/10/25 10:53:30;;;;;;;4.90;1.60;;;17.00;90.00;;;;;;4901847;29;20080;-83
2022/10/25 10:56:06;;;;;;;3.72;1.50;;;17.00;89.80;;;;;;4901359;29;20119;-81
2022/10/25 10:58:39;;;;;;;3.70;1.48;;;17.10;89.60;;;;;;4893062;29;20032;-80
2022/10/25 11:01:34;;;;;;;5.75;1.50;;;17.00;89.50;;;;;;4899666;29;20628;-80
2022/10/25 11:04:02;;;;;;;2.45;1.10;;;17.10;89.60;;;;;;4901029;29;20056;-78
2022/10/25 11:06:31;;;;;;;3.00;1.20;;;17.00;89.40;;;;;;4900693;29;20096;-81
2022/10/25 11:09:15;;;;;;;2.92;1.10;;;17.10;89.50;;;;;;4898664;29;20036;-78
2022/10/25 11:11:42;;;;;;;3.47;1.33;;;17.10;89.50;;;;;;4888330;29;20037;-81
2022/10/25 11:14:12;;;;;;;4.75;1.38;;;17.10;89.60;;;;;;4914112;29;20064;-81
2022/10/25 11:16:46;;;;;;;5.30;1.40;;;16.90;89.60;;;;;;4900340;29;20031;-81
2022/10/25 11:19:23;;;;;;;2.97;1.23;;;17.00;89.70;;;;;;4882788;29;20546;-80
2022/10/25 11:21:56;;;;;;;3.17;1.40;;;17.00;89.80;;;;;;4897646;29;20033;-80
2022/10/25 11:24:44;;;;;;;2.30;1.20;;;17.00;90.00;;;;;;4899494;29;20025;-81
2022/10/25 11:27:18;;;;;;;4.78;1.48;;;17.00;90.00;;;;;;4900865;29;20025;-79
2022/10/25 11:30:00;;;;;;;3.58;1.30;;;16.90;90.00;;;;;;4882997;29;20036;-78
2022/10/25 11:32:50;;;;;;;3.88;1.17;;;16.90;90.00;;;;;;4915187;29;20032;-81
2022/10/25 11:35:32;;;;;;;3.03;1.20;;;16.90;90.00;;;;;;4900515;29;20507;-80
2022/10/25 11:38:03;;;;;;;3.03;1.20;;;16.90;90.00;;;;;;4900125;29;20036;-80
2022/10/25 11:40:31;;;;;;;;;;;16.80;90.00;;;;;;4883560;29;20408;-80
2022/10/25 11:43:24;;;;;;;3.85;1.38;;;16.90;90.00;;;;;;4898292;29;19911;-77
2022/10/25 11:46:04;;;;;;;2.30;1.20;;;16.90;90.00;;;;;;4883409;29;20029;-80
2022/10/25 11:48:48;;;;;;;2.42;1.25;;;16.90;90.00;;;;;;4900183;29;20028;-80
2022/10/25 11:51:27;;;;;;;4.20;1.20;;;16.90;90.00;;;;;;4883474;29;20184;-77
2022/10/25 11:54:01;;;;;;;3.22;1.20;;;16.90;90.00;;;;;;4881438;29;20449;-81
2022/10/25 11:57:06;;;;;;;3.50;1.30;;;16.90;90.10;;;;;;4899248;29;20080;-81
2022/10/25 11:59:41;;;;;;;3.22;1.40;;;16.90;90.00;;;;;;4883882;29;20036;-81
2022/10/25 12:02:19;;;;;;;2.42;1.17;;;16.90;90.00;;;;;;4886712;29;20401;-80
2022/10/25 12:04:55;;;;;;;3.13;1.30;;;16.90;90.00;;;;;;4901772;29;20430;-81
2022/10/25 12:07:43;;;;;;;3.58;1.55;;;17.00;90.00;;;;;;4919958;29;20040;-81
2022/10/25 12:10:35;;;;;;;2.33;1.20;;;17.00;89.90;;;;;;4917972;29;20029;-80
2022/10/25 12:13:28;;;;;;;2.78;1.40;;;17.00;89.90;;;;;;4902281;29;20415;-81
2022/10/25 12:15:56;;;;;;;3.70;1.48;;;17.00;89.60;;;;;;4902138;29;20028;-81
2022/10/25 12:18:37;;;;;;;3.30;1.23;;;17.10;89.50;;;;;;4918863;29;20030;-80
2022/10/25 12:21:03;;;;;;;3.08;1.15;;;17.10;89.50;;;;;;4917880;29;20032;-81
2022/10/25 12:23:37;;;;;;;3.63;1.50;;;17.10;89.20;;;;;;4917141;29;20039;-81
2022/10/25 12:26:16;;;;;;;2.45;1.10;;;17.10;89.20;;;;;;4918452;29;20676;-81
2022/10/25 12:28:44;;;;;;;2.95;1.13;;;17.10;89.10;;;;;;4917598;29;20080;-80
2022/10/25 12:31:14;;;;;;;2.45;1.23;;;17.10;89.20;;;;;;4913769;29;20043;-81
2022/10/25 12:33:47;;;;;;;2.45;1.00;;;17.20;89.30;;;;;;4898726;29;20047;-81
2022/10/25 12:36:36;;;;;;;3.05;1.20;;;17.10;89.20;;;;;;4902946;29;20037;-80
2022/10/25 12:39:09;;;;;;;2.33;1.10;;;17.10;89.20;;;;;;4901769;29;20036;-81
2022/10/25 12:41:39;;;;;;;2.65;1.13;;;17.10;89.30;;;;;;4902230;29;20506;-79
2022/10/25 12:44:32;;;;;;;3.15;1.27;;;17.10;89.40;;;;;;4916937;29;20071;-81
2022/10/25 12:47:23;;;;;;;1.95;0.98;;;17.00;89.40;;;;;;4904244;29;20029;-79
2022/10/25 12:49:56;;;;;;;2.33;1.17;;;17.00;89.40;;;;;;4916798;29;20033;-78
2022/10/25 12:52:33;;;;;;;2.60;1.20;;;17.10;89.50;;;;;;4900464;29;20511;-81
2022/10/25 12:54:58;;;;;;;2.13;1.30;;;17.10;89.50;;;;;;4900042;29;20032;-80
2022/10/25 12:58:09;;;;;;;2.78;1.00;;;17.10;89.50;;;;;;4903065;29;20033;-81
2022/10/25 13:00:57;;;;;;;2.65;1.20;;;17.10;89.40;;;;;;4864918;29;20495;-80
2022/10/25 13:03:48;;;;;;;2.10;1.13;;;17.10;89.40;;;;;;4903286;29;20090;-81
2022/10/25 13:06:47;;;;;;;3.15;1.27;;;17.10;89.40;;;;;;4903782;29;20036;-80
2022/10/25 13:09:15;;;;;;;2.17;1.10;;;17.10;89.20;;;;;;4895640;29;20517;-80
2022/10/25 13:12:00;;;;;;;2.13;1.13;;;17.10;89.20;;;;;;4904436;29;20080;-81